GLD1043 SBSN-SBBV
Flight info
| Callsign | GLD1043 |
|---|---|
| Flight time | 1h 14m |
| Altitude | 36000 |
| Route | SOBID DCT LODOK UZ24 ILVIS DCT ANBIX |
| Aircraft | B738/M-SDE2E3FGHIRWXY/LB1 |
Departure
| Time | 2026-04-21 22:35 |
|---|---|
| Airport | Santarém - Maestro Wilson Fonseca International Airport (SBSN) |
Arrival
| Time | 2026-04-21 23:50 |
|---|---|
| Airport | Atlas Brasil Cantanhede International Airport (SBBV) |
| Time | Latitude | Longitude | Altitude | Speed | Heading |
|---|---|---|---|---|---|
| 2026-04-21 21:57 | -2.42352 | -54.78357 | 214 ft | 0 kts | 201° |
| 2026-04-21 22:27 | -2.42335 | -54.78352 | 215 ft | 4 kts | 181° |
| 2026-04-21 22:27 | -2.42311 | -54.78358 | 211 ft | 4 kts | 134° |
| 2026-04-21 22:27 | -2.42303 | -54.78370 | 216 ft | 0 kts | 109° |
| 2026-04-21 22:30 | -2.42305 | -54.78363 | 212 ft | 3 kts | 109° |
| 2026-04-21 22:30 | -2.42305 | -54.78328 | 207 ft | 5 kts | 59° |
| 2026-04-21 22:30 | -2.42284 | -54.78312 | 209 ft | 6 kts | 28° |
| 2026-04-21 22:31 | -2.42257 | -54.78299 | 209 ft | 3 kts | 25° |
| 2026-04-21 22:31 | -2.42234 | -54.78289 | 214 ft | 4 kts | 25° |
| 2026-04-21 22:31 | -2.42201 | -54.78273 | 214 ft | 7 kts | 25° |
| 2026-04-21 22:31 | -2.42134 | -54.78242 | 210 ft | 9 kts | 23° |
| 2026-04-21 22:32 | -2.42099 | -54.78229 | 207 ft | 7 kts | 13° |
| 2026-04-21 22:32 | -2.42070 | -54.78241 | 210 ft | 4 kts | 285° |
| 2026-04-21 22:32 | -2.42071 | -54.78251 | 208 ft | 0 kts | 261° |
| 2026-04-21 22:34 | -2.42074 | -54.78271 | 211 ft | 20 kts | 262° |
| 2026-04-21 22:35 | -2.42137 | -54.78666 | 208 ft | 94 kts | 261° |
| 2026-04-21 22:35 | -2.42277 | -54.79524 | 211 ft | 156 kts | 261° |
| 2026-04-21 22:35 | -2.42464 | -54.80714 | 636 ft | 175 kts | 261° |
| 2026-04-21 22:35 | -2.42657 | -54.81872 | 1523 ft | 170 kts | 260° |
| 2026-04-21 22:36 | -2.43051 | -54.84351 | 2726 ft | 197 kts | 260° |
| 2026-04-21 22:36 | -2.43285 | -54.85783 | 3181 ft | 217 kts | 265° |
| 2026-04-21 22:36 | -2.43037 | -54.87340 | 3383 ft | 243 kts | 299° |
| 2026-04-21 22:37 | -2.41783 | -54.88549 | 3654 ft | 265 kts | 338° |
| 2026-04-21 22:37 | -2.40045 | -54.89236 | 4323 ft | 274 kts | 327° |
| 2026-04-21 22:37 | -2.38793 | -54.90674 | 5145 ft | 278 kts | 298° |
| 2026-04-21 22:37 | -2.37933 | -54.92383 | 6001 ft | 280 kts | 296° |
| 2026-04-21 22:38 | -2.37027 | -54.94132 | 6742 ft | 285 kts | 297° |
| 2026-04-21 22:38 | -2.36065 | -54.95884 | 7481 ft | 289 kts | 299° |
| 2026-04-21 22:38 | -2.35051 | -54.97642 | 8247 ft | 292 kts | 300° |
| 2026-04-21 22:38 | -2.34015 | -54.99370 | 9030 ft | 295 kts | 301° |
| 2026-04-21 22:39 | -2.32935 | -55.01128 | 9798 ft | 298 kts | 301° |
| 2026-04-21 22:39 | -2.31817 | -55.02916 | 10311 ft | 311 kts | 302° |
| 2026-04-21 22:39 | -2.30618 | -55.04816 | 10467 ft | 334 kts | 302° |
| 2026-04-21 22:39 | -2.29330 | -55.06843 | 10663 ft | 354 kts | 302° |
| 2026-04-21 22:40 | -2.27984 | -55.08947 | 11111 ft | 363 kts | 302° |
| 2026-04-21 22:40 | -2.26611 | -55.11088 | 11734 ft | 366 kts | 302° |
| 2026-04-21 22:40 | -2.25232 | -55.13235 | 12392 ft | 368 kts | 302° |
| 2026-04-21 22:40 | -2.23842 | -55.15397 | 13013 ft | 371 kts | 303° |
| 2026-04-21 22:41 | -2.22454 | -55.17556 | 13611 ft | 375 kts | 303° |
| 2026-04-21 22:41 | -2.21038 | -55.19757 | 14145 ft | 378 kts | 303° |
| 2026-04-21 22:41 | -2.19606 | -55.21984 | 14675 ft | 381 kts | 303° |
| 2026-04-21 22:41 | -2.18162 | -55.24229 | 15199 ft | 385 kts | 303° |
| 2026-04-21 22:42 | -2.16707 | -55.26491 | 15712 ft | 388 kts | 303° |
| 2026-04-21 22:42 | -2.15246 | -55.28762 | 16245 ft | 390 kts | 303° |
| 2026-04-21 22:42 | -2.13773 | -55.31054 | 16778 ft | 392 kts | 303° |
| 2026-04-21 22:42 | -2.12292 | -55.33357 | 17276 ft | 395 kts | 303° |
| 2026-04-21 22:43 | -2.10800 | -55.35677 | 17772 ft | 399 kts | 303° |
| 2026-04-21 22:43 | -2.09313 | -55.37988 | 18237 ft | 402 kts | 303° |
| 2026-04-21 22:43 | -2.07858 | -55.40386 | 18633 ft | 406 kts | 295° |
| 2026-04-21 22:43 | -2.07147 | -55.43128 | 19016 ft | 410 kts | 276° |
| 2026-04-21 22:44 | -2.07088 | -55.45980 | 19449 ft | 413 kts | 265° |
| 2026-04-21 22:44 | -2.07611 | -55.48815 | 19834 ft | 416 kts | 256° |
| 2026-04-21 22:44 | -2.08367 | -55.51623 | 20220 ft | 420 kts | 255° |
| 2026-04-21 22:44 | -2.09155 | -55.54451 | 20597 ft | 423 kts | 255° |
| 2026-04-21 22:45 | -2.09919 | -55.57299 | 20972 ft | 426 kts | 255° |
| 2026-04-21 22:45 | -2.10663 | -55.60173 | 21349 ft | 428 kts | 256° |
| 2026-04-21 22:45 | -2.11206 | -55.63081 | 21682 ft | 431 kts | 268° |
| 2026-04-21 22:45 | -2.10993 | -55.66079 | 22057 ft | 432 kts | 281° |
| 2026-04-21 22:46 | -2.10214 | -55.68959 | 22417 ft | 434 kts | 293° |
| 2026-04-21 22:46 | -2.08854 | -55.71651 | 22765 ft | 435 kts | 301° |
| 2026-04-21 22:46 | -2.07312 | -55.74264 | 23105 ft | 438 kts | 302° |
| 2026-04-21 22:46 | -2.05724 | -55.76878 | 23428 ft | 441 kts | 302° |
| 2026-04-21 22:47 | -2.04121 | -55.79505 | 23711 ft | 443 kts | 302° |
| 2026-04-21 22:47 | -2.02521 | -55.82142 | 24018 ft | 445 kts | 302° |
| 2026-04-21 22:47 | -2.00921 | -55.84801 | 24307 ft | 447 kts | 302° |
| 2026-04-21 22:47 | -1.99322 | -55.87478 | 24571 ft | 449 kts | 302° |
| 2026-04-21 22:48 | -1.97724 | -55.90169 | 24834 ft | 452 kts | 301° |
| 2026-04-21 22:48 | -1.96117 | -55.92881 | 25099 ft | 454 kts | 301° |
| 2026-04-21 22:48 | -1.94507 | -55.95602 | 25370 ft | 456 kts | 301° |
| 2026-04-21 22:48 | -1.92910 | -55.98304 | 25625 ft | 458 kts | 301° |
| 2026-04-21 22:49 | -1.91287 | -56.01049 | 25883 ft | 460 kts | 301° |
| 2026-04-21 22:49 | -1.89649 | -56.03818 | 26134 ft | 462 kts | 301° |
| 2026-04-21 22:49 | -1.88002 | -56.06602 | 26345 ft | 466 kts | 301° |
| 2026-04-21 22:49 | -1.86343 | -56.09405 | 26575 ft | 468 kts | 301° |
| 2026-04-21 22:50 | -1.84697 | -56.12187 | 26816 ft | 470 kts | 301° |
| 2026-04-21 22:50 | -1.83030 | -56.15003 | 27069 ft | 472 kts | 301° |
| 2026-04-21 22:50 | -1.81356 | -56.17830 | 27305 ft | 474 kts | 301° |
| 2026-04-21 22:50 | -1.79670 | -56.20679 | 27530 ft | 476 kts | 301° |
| 2026-04-21 22:51 | -1.77980 | -56.23535 | 27753 ft | 478 kts | 301° |
| 2026-04-21 22:51 | -1.76282 | -56.26403 | 27980 ft | 480 kts | 301° |
| 2026-04-21 22:51 | -1.74580 | -56.29277 | 28189 ft | 482 kts | 301° |
| 2026-04-21 22:51 | -1.72872 | -56.32162 | 28417 ft | 483 kts | 301° |
| 2026-04-21 22:52 | -1.71156 | -56.35061 | 28654 ft | 485 kts | 301° |
| 2026-04-21 22:52 | -1.69437 | -56.37963 | 28866 ft | 486 kts | 301° |
| 2026-04-21 22:52 | -1.67707 | -56.40885 | 29063 ft | 488 kts | 301° |
| 2026-04-21 22:52 | -1.65974 | -56.43811 | 29254 ft | 490 kts | 301° |
| 2026-04-21 22:53 | -1.64235 | -56.46748 | 29452 ft | 492 kts | 301° |
| 2026-04-21 22:53 | -1.62491 | -56.49694 | 29653 ft | 494 kts | 301° |
| 2026-04-21 22:53 | -1.60760 | -56.52616 | 29834 ft | 495 kts | 301° |
| 2026-04-21 22:53 | -1.59005 | -56.55580 | 30029 ft | 496 kts | 301° |
| 2026-04-21 22:54 | -1.57242 | -56.58557 | 30182 ft | 498 kts | 301° |
| 2026-04-21 22:54 | -1.55475 | -56.61539 | 30348 ft | 499 kts | 301° |
| 2026-04-21 22:54 | -1.53702 | -56.64533 | 30603 ft | 498 kts | 301° |
| 2026-04-21 22:54 | -1.51940 | -56.67507 | 30895 ft | 497 kts | 301° |
| 2026-04-21 22:55 | -1.50177 | -56.70483 | 31168 ft | 496 kts | 301° |
| 2026-04-21 22:55 | -1.48419 | -56.73451 | 31393 ft | 496 kts | 301° |
| 2026-04-21 22:55 | -1.46651 | -56.76436 | 31620 ft | 496 kts | 301° |
| 2026-04-21 22:55 | -1.44918 | -56.79360 | 31874 ft | 495 kts | 301° |
| 2026-04-21 22:56 | -1.43161 | -56.82325 | 32139 ft | 495 kts | 301° |
| 2026-04-21 22:56 | -1.41404 | -56.85292 | 32386 ft | 494 kts | 301° |
| 2026-04-21 22:56 | -1.39652 | -56.88248 | 32612 ft | 494 kts | 301° |
| 2026-04-21 22:56 | -1.37895 | -56.91213 | 32858 ft | 494 kts | 301° |
| 2026-04-21 22:57 | -1.36143 | -56.94171 | 33121 ft | 494 kts | 301° |
| 2026-04-21 22:57 | -1.34391 | -56.97126 | 33377 ft | 493 kts | 301° |
| 2026-04-21 22:57 | -1.32662 | -57.00045 | 33614 ft | 493 kts | 301° |
| 2026-04-21 22:57 | -1.30912 | -57.02998 | 33866 ft | 493 kts | 301° |
| 2026-04-21 22:58 | -1.29164 | -57.05948 | 34096 ft | 492 kts | 301° |
| 2026-04-21 22:58 | -1.27421 | -57.08889 | 34321 ft | 492 kts | 301° |
| 2026-04-21 22:58 | -1.25675 | -57.11833 | 34532 ft | 492 kts | 301° |
| 2026-04-21 22:58 | -1.23946 | -57.14751 | 34701 ft | 493 kts | 301° |
| 2026-04-21 22:59 | -1.22191 | -57.17712 | 34894 ft | 493 kts | 301° |
| 2026-04-21 22:59 | -1.20446 | -57.20656 | 35120 ft | 492 kts | 301° |
| 2026-04-21 22:59 | -1.18705 | -57.23594 | 35365 ft | 491 kts | 301° |
| 2026-04-21 22:59 | -1.16965 | -57.26530 | 35602 ft | 490 kts | 301° |
| 2026-04-21 23:00 | -1.15221 | -57.29472 | 35801 ft | 490 kts | 301° |
| 2026-04-21 23:00 | -1.13503 | -57.32369 | 35882 ft | 492 kts | 301° |
| 2026-04-21 23:00 | -1.10007 | -57.38267 | 35888 ft | 492 kts | 301° |
| 2026-04-21 23:01 | -1.06519 | -57.44149 | 35883 ft | 491 kts | 301° |
| 2026-04-21 23:01 | -1.03062 | -57.49981 | 35890 ft | 489 kts | 301° |
| 2026-04-21 23:02 | -0.99571 | -57.55870 | 35891 ft | 489 kts | 301° |
| 2026-04-21 23:02 | -0.96125 | -57.61682 | 35893 ft | 489 kts | 301° |
| 2026-04-21 23:03 | -0.92662 | -57.67521 | 35889 ft | 488 kts | 301° |
| 2026-04-21 23:03 | -0.89196 | -57.73367 | 35893 ft | 488 kts | 301° |
| 2026-04-21 23:04 | -0.85759 | -57.79163 | 35889 ft | 487 kts | 301° |
| 2026-04-21 23:04 | -0.82298 | -57.85001 | 35894 ft | 487 kts | 301° |
| 2026-04-21 23:05 | -0.78773 | -57.90755 | 35877 ft | 486 kts | 309° |
| 2026-04-21 23:05 | -0.74175 | -57.95689 | 35890 ft | 484 kts | 317° |
| 2026-04-21 23:06 | -0.69328 | -58.00368 | 35895 ft | 484 kts | 316° |
| 2026-04-21 23:06 | -0.64637 | -58.05152 | 35895 ft | 485 kts | 315° |
| 2026-04-21 23:07 | -0.59992 | -58.10070 | 35898 ft | 486 kts | 314° |
| 2026-04-21 23:07 | -0.55357 | -58.15010 | 35890 ft | 486 kts | 314° |
| 2026-04-21 23:08 | -0.50720 | -58.19938 | 35895 ft | 487 kts | 314° |
| 2026-04-21 23:08 | -0.46098 | -58.24841 | 35892 ft | 487 kts | 314° |
| 2026-04-21 23:09 | -0.41450 | -58.29772 | 35890 ft | 487 kts | 314° |
| 2026-04-21 23:09 | -0.36801 | -58.34704 | 35892 ft | 486 kts | 314° |
| 2026-04-21 23:10 | -0.31784 | -58.39111 | 35899 ft | 480 kts | 333° |
| 2026-04-21 23:10 | -0.25579 | -58.41375 | 35891 ft | 473 kts | 354° |
| 2026-04-21 23:11 | -0.19076 | -58.41848 | 35882 ft | 472 kts | 350° |
| 2026-04-21 23:11 | -0.12728 | -58.43624 | 35897 ft | 475 kts | 344° |
| 2026-04-21 23:12 | -0.06540 | -58.45878 | 35892 ft | 477 kts | 339° |
| 2026-04-21 23:12 | -0.00735 | -58.49174 | 35889 ft | 482 kts | 324° |
| 2026-04-21 23:13 | 0.04264 | -58.53671 | 35891 ft | 485 kts | 315° |
| 2026-04-21 23:13 | 0.08842 | -58.58588 | 35897 ft | 487 kts | 313° |
| 2026-04-21 23:14 | 0.13424 | -58.63600 | 35888 ft | 489 kts | 314° |
| 2026-04-21 23:14 | 0.18068 | -58.68583 | 35887 ft | 490 kts | 314° |
| 2026-04-21 23:15 | 0.22726 | -58.73521 | 35890 ft | 491 kts | 314° |
| 2026-04-21 23:15 | 0.27433 | -58.78500 | 35890 ft | 492 kts | 314° |
| 2026-04-21 23:16 | 0.32135 | -58.83477 | 35887 ft | 492 kts | 314° |
| 2026-04-21 23:16 | 0.36802 | -58.88421 | 35894 ft | 491 kts | 314° |
| 2026-04-21 23:17 | 0.41486 | -58.93385 | 35885 ft | 489 kts | 314° |
| 2026-04-21 23:17 | 0.46122 | -58.98297 | 35885 ft | 487 kts | 314° |
| 2026-04-21 23:18 | 0.50773 | -59.03225 | 35890 ft | 485 kts | 314° |
| 2026-04-21 23:18 | 0.55397 | -59.08124 | 35891 ft | 483 kts | 314° |
| 2026-04-21 23:19 | 0.59973 | -59.12973 | 35889 ft | 481 kts | 314° |
| 2026-04-21 23:19 | 0.64565 | -59.17838 | 35890 ft | 480 kts | 314° |
| 2026-04-21 23:20 | 0.69151 | -59.22699 | 35900 ft | 480 kts | 314° |
| 2026-04-21 23:20 | 0.72965 | -59.26741 | 35889 ft | 480 kts | 314° |
| 2026-04-21 23:21 | 0.78288 | -59.32383 | 35901 ft | 480 kts | 314° |
| 2026-04-21 23:21 | 0.82209 | -59.36374 | 35893 ft | 480 kts | 317° |
| 2026-04-21 23:22 | 0.87100 | -59.40875 | 35895 ft | 481 kts | 319° |
| 2026-04-21 23:22 | 0.92055 | -59.45377 | 35893 ft | 482 kts | 318° |
| 2026-04-21 23:23 | 0.96991 | -59.49925 | 35891 ft | 483 kts | 318° |
| 2026-04-21 23:23 | 1.01925 | -59.54499 | 35885 ft | 484 kts | 318° |
| 2026-04-21 23:24 | 1.04402 | -59.56795 | 35334 ft | 492 kts | 318° |
| 2026-04-21 23:24 | 1.06903 | -59.59114 | 34739 ft | 491 kts | 318° |
| 2026-04-21 23:24 | 1.09408 | -59.61437 | 34093 ft | 492 kts | 318° |
| 2026-04-21 23:24 | 1.11924 | -59.63767 | 33370 ft | 494 kts | 318° |
| 2026-04-21 23:25 | 1.14428 | -59.66086 | 32901 ft | 488 kts | 318° |
| 2026-04-21 23:25 | 1.16917 | -59.68389 | 32372 ft | 485 kts | 318° |
| 2026-04-21 23:25 | 1.19389 | -59.70674 | 31893 ft | 481 kts | 318° |
| 2026-04-21 23:25 | 1.21831 | -59.72932 | 31416 ft | 476 kts | 318° |
| 2026-04-21 23:26 | 1.24229 | -59.75148 | 30952 ft | 473 kts | 317° |
| 2026-04-21 23:26 | 1.26632 | -59.77370 | 30476 ft | 469 kts | 317° |
| 2026-04-21 23:26 | 1.29023 | -59.79581 | 30001 ft | 466 kts | 317° |
| 2026-04-21 23:26 | 1.31394 | -59.81775 | 29460 ft | 463 kts | 317° |
| 2026-04-21 23:27 | 1.33743 | -59.83947 | 28958 ft | 458 kts | 317° |
| 2026-04-21 23:27 | 1.36083 | -59.86113 | 28462 ft | 454 kts | 317° |
| 2026-04-21 23:27 | 1.38390 | -59.88247 | 27981 ft | 449 kts | 317° |
| 2026-04-21 23:27 | 1.40647 | -59.90335 | 27513 ft | 445 kts | 317° |
| 2026-04-21 23:28 | 1.42913 | -59.92432 | 27043 ft | 441 kts | 317° |
| 2026-04-21 23:28 | 1.45151 | -59.94503 | 26588 ft | 437 kts | 317° |
| 2026-04-21 23:28 | 1.47369 | -59.96555 | 26116 ft | 433 kts | 317° |
| 2026-04-21 23:28 | 1.49571 | -59.98593 | 25650 ft | 429 kts | 317° |
| 2026-04-21 23:29 | 1.51754 | -60.00614 | 25189 ft | 426 kts | 317° |
| 2026-04-21 23:29 | 1.53924 | -60.02622 | 24731 ft | 423 kts | 317° |
| 2026-04-21 23:29 | 1.56077 | -60.04613 | 24274 ft | 420 kts | 317° |
| 2026-04-21 23:29 | 1.58219 | -60.06594 | 23884 ft | 416 kts | 317° |
| 2026-04-21 23:30 | 1.60331 | -60.08545 | 23480 ft | 412 kts | 317° |
| 2026-04-21 23:30 | 1.62413 | -60.10466 | 22982 ft | 409 kts | 317° |
| 2026-04-21 23:30 | 1.64495 | -60.12388 | 22508 ft | 405 kts | 317° |
| 2026-04-21 23:30 | 1.66554 | -60.14289 | 22056 ft | 401 kts | 317° |
| 2026-04-21 23:31 | 1.68597 | -60.16175 | 21612 ft | 398 kts | 317° |
| 2026-04-21 23:31 | 1.70604 | -60.18029 | 21169 ft | 394 kts | 317° |
| 2026-04-21 23:31 | 1.72608 | -60.19880 | 20738 ft | 391 kts | 317° |
| 2026-04-21 23:31 | 1.74600 | -60.21720 | 20315 ft | 388 kts | 317° |
| 2026-04-21 23:32 | 1.76574 | -60.23543 | 19881 ft | 385 kts | 317° |
| 2026-04-21 23:32 | 1.78542 | -60.25362 | 19447 ft | 383 kts | 317° |
| 2026-04-21 23:32 | 1.80472 | -60.27145 | 19023 ft | 381 kts | 316° |
| 2026-04-21 23:32 | 1.82418 | -60.28943 | 18593 ft | 380 kts | 316° |
| 2026-04-21 23:33 | 1.84355 | -60.30733 | 18172 ft | 378 kts | 316° |
| 2026-04-21 23:33 | 1.86280 | -60.32512 | 17698 ft | 376 kts | 316° |
| 2026-04-21 23:33 | 1.88192 | -60.34279 | 17251 ft | 373 kts | 316° |
| 2026-04-21 23:33 | 1.90092 | -60.36035 | 16836 ft | 370 kts | 316° |
| 2026-04-21 23:34 | 1.91979 | -60.37779 | 16426 ft | 367 kts | 316° |
| 2026-04-21 23:34 | 1.93849 | -60.39507 | 16020 ft | 364 kts | 316° |
| 2026-04-21 23:34 | 1.95689 | -60.41208 | 15622 ft | 362 kts | 316° |
| 2026-04-21 23:34 | 1.97537 | -60.42916 | 15222 ft | 359 kts | 316° |
| 2026-04-21 23:35 | 1.99366 | -60.44607 | 14829 ft | 357 kts | 316° |
| 2026-04-21 23:35 | 2.01188 | -60.46290 | 14436 ft | 355 kts | 316° |
| 2026-04-21 23:35 | 2.02999 | -60.47965 | 14040 ft | 354 kts | 316° |
| 2026-04-21 23:35 | 2.04782 | -60.49613 | 13645 ft | 352 kts | 316° |
| 2026-04-21 23:36 | 2.06581 | -60.51277 | 13214 ft | 350 kts | 316° |
| 2026-04-21 23:36 | 2.08369 | -60.52930 | 12815 ft | 348 kts | 316° |
| 2026-04-21 23:36 | 2.10138 | -60.54566 | 12425 ft | 345 kts | 316° |
| 2026-04-21 23:36 | 2.11893 | -60.56189 | 12045 ft | 343 kts | 316° |
| 2026-04-21 23:37 | 2.13638 | -60.57802 | 11665 ft | 340 kts | 316° |
| 2026-04-21 23:37 | 2.15370 | -60.59403 | 11292 ft | 338 kts | 316° |
| 2026-04-21 23:37 | 2.17090 | -60.60993 | 10923 ft | 335 kts | 316° |
| 2026-04-21 23:37 | 2.18898 | -60.62404 | 10539 ft | 335 kts | 330° |
| 2026-04-21 23:38 | 2.21016 | -60.63300 | 10369 ft | 327 kts | 339° |
| 2026-04-21 23:38 | 2.23133 | -60.64071 | 10194 ft | 319 kts | 339° |
| 2026-04-21 23:38 | 2.25199 | -60.64811 | 10056 ft | 310 kts | 339° |
| 2026-04-21 23:38 | 2.27207 | -60.65532 | 9917 ft | 302 kts | 339° |
| 2026-04-21 23:39 | 2.29173 | -60.66243 | 9691 ft | 298 kts | 339° |
| 2026-04-21 23:39 | 2.31093 | -60.66942 | 9388 ft | 296 kts | 339° |
| 2026-04-21 23:39 | 2.33046 | -60.67655 | 9089 ft | 294 kts | 339° |
| 2026-04-21 23:39 | 2.34940 | -60.68349 | 8800 ft | 293 kts | 339° |
| 2026-04-21 23:40 | 2.36852 | -60.69051 | 8512 ft | 291 kts | 340° |
| 2026-04-21 23:40 | 2.38746 | -60.69747 | 8224 ft | 289 kts | 340° |
| 2026-04-21 23:40 | 2.40630 | -60.70440 | 7935 ft | 287 kts | 340° |
| 2026-04-21 23:40 | 2.42502 | -60.71128 | 7653 ft | 286 kts | 340° |
| 2026-04-21 23:41 | 2.44363 | -60.71813 | 7371 ft | 284 kts | 340° |
| 2026-04-21 23:41 | 2.46218 | -60.72496 | 7086 ft | 283 kts | 340° |
| 2026-04-21 23:41 | 2.48058 | -60.73173 | 6805 ft | 279 kts | 340° |
| 2026-04-21 23:41 | 2.49845 | -60.73831 | 6526 ft | 273 kts | 340° |
| 2026-04-21 23:42 | 2.51621 | -60.74484 | 6267 ft | 271 kts | 341° |
| 2026-04-21 23:42 | 2.53399 | -60.75138 | 5983 ft | 271 kts | 341° |
| 2026-04-21 23:42 | 2.55164 | -60.75788 | 5693 ft | 270 kts | 341° |
| 2026-04-21 23:42 | 2.56927 | -60.76437 | 5420 ft | 269 kts | 341° |
| 2026-04-21 23:43 | 2.58662 | -60.77076 | 5151 ft | 268 kts | 341° |
| 2026-04-21 23:43 | 2.60410 | -60.77719 | 4884 ft | 268 kts | 341° |
| 2026-04-21 23:43 | 2.62160 | -60.78364 | 4609 ft | 267 kts | 341° |
| 2026-04-21 23:43 | 2.63901 | -60.79004 | 4323 ft | 266 kts | 341° |
| 2026-04-21 23:44 | 2.65625 | -60.79639 | 4170 ft | 258 kts | 341° |
| 2026-04-21 23:44 | 2.67268 | -60.80244 | 3977 ft | 249 kts | 340° |
| 2026-04-21 23:44 | 2.68812 | -60.80943 | 3836 ft | 236 kts | 334° |
| 2026-04-21 23:44 | 2.70216 | -60.81678 | 3736 ft | 223 kts | 333° |
| 2026-04-21 23:45 | 2.71554 | -60.82379 | 3640 ft | 210 kts | 334° |
| 2026-04-21 23:45 | 2.73996 | -60.83643 | 3416 ft | 188 kts | 334° |
| 2026-04-21 23:45 | 2.75169 | -60.84126 | 3210 ft | 183 kts | 357° |
| 2026-04-21 23:46 | 2.76395 | -60.83884 | 3075 ft | 180 kts | 28° |
| 2026-04-21 23:46 | 2.77366 | -60.83090 | 2883 ft | 182 kts | 54° |
| 2026-04-21 23:46 | 2.77986 | -60.81991 | 2725 ft | 181 kts | 61° |
| 2026-04-21 23:46 | 2.78587 | -60.80872 | 2494 ft | 180 kts | 62° |
| 2026-04-21 23:47 | 2.79137 | -60.79806 | 2288 ft | 169 kts | 63° |
| 2026-04-21 23:47 | 2.79665 | -60.78771 | 2068 ft | 162 kts | 63° |
| 2026-04-21 23:47 | 2.80157 | -60.77802 | 1863 ft | 151 kts | 63° |
| 2026-04-21 23:47 | 2.80628 | -60.76875 | 1688 ft | 151 kts | 63° |
| 2026-04-21 23:48 | 2.81092 | -60.75963 | 1497 ft | 146 kts | 63° |
| 2026-04-21 23:48 | 2.81548 | -60.75068 | 1293 ft | 143 kts | 63° |
| 2026-04-21 23:48 | 2.81992 | -60.74194 | 1137 ft | 139 kts | 63° |
| 2026-04-21 23:48 | 2.82433 | -60.73332 | 952 ft | 140 kts | 63° |
| 2026-04-21 23:49 | 2.82886 | -60.72452 | 763 ft | 142 kts | 64° |
| 2026-04-21 23:49 | 2.83328 | -60.71562 | 582 ft | 143 kts | 65° |
| 2026-04-21 23:49 | 2.83784 | -60.70669 | 420 ft | 144 kts | 64° |
| 2026-04-21 23:49 | 2.84229 | -60.69794 | 286 ft | 138 kts | 63° |
| 2026-04-21 23:50 | 2.84617 | -60.69033 | 280 ft | 103 kts | 63° |
| 2026-04-21 23:50 | 2.84863 | -60.68552 | 279 ft | 56 kts | 63° |
| 2026-04-21 23:50 | 2.85021 | -60.68245 | 278 ft | 32 kts | 63° |
| 2026-04-21 23:50 | 2.85105 | -60.68081 | 280 ft | 15 kts | 68° |
| 2026-04-21 23:51 | 2.85128 | -60.68042 | 280 ft | 5 kts | 317° |
| 2026-04-21 23:51 | 2.85111 | -60.68075 | 280 ft | 6 kts | 225° |
| 2026-04-21 23:51 | 2.85069 | -60.68108 | 280 ft | 9 kts | 215° |
| 2026-04-21 23:51 | 2.85010 | -60.68148 | 279 ft | 12 kts | 213° |
| 2026-04-21 23:52 | 2.84933 | -60.68198 | 279 ft | 13 kts | 213° |
| 2026-04-21 23:52 | 2.84864 | -60.68247 | 279 ft | 12 kts | 223° |
| 2026-04-21 23:52 | 2.84820 | -60.68307 | 279 ft | 11 kts | 241° |
| 2026-04-21 23:52 | 2.84781 | -60.68380 | 279 ft | 13 kts | 242° |
| 2026-04-21 23:53 | 2.84738 | -60.68467 | 281 ft | 15 kts | 244° |
| 2026-04-21 23:53 | 2.84688 | -60.68566 | 279 ft | 16 kts | 243° |
| 2026-04-21 23:53 | 2.84636 | -60.68667 | 279 ft | 17 kts | 243° |
| 2026-04-21 23:53 | 2.84578 | -60.68779 | 279 ft | 19 kts | 242° |
| 2026-04-21 23:54 | 2.84518 | -60.68895 | 279 ft | 20 kts | 243° |
| 2026-04-21 23:54 | 2.84461 | -60.69011 | 279 ft | 16 kts | 243° |
| 2026-04-21 23:54 | 2.84407 | -60.69116 | 279 ft | 17 kts | 242° |
| 2026-04-21 23:54 | 2.84363 | -60.69199 | 278 ft | 11 kts | 242° |
| 2026-04-21 23:55 | 2.84320 | -60.69233 | 278 ft | 7 kts | 171° |
| 2026-04-21 23:55 | 2.84279 | -60.69246 | 281 ft | 7 kts | 231° |
| 2026-04-21 23:55 | 2.84244 | -60.69267 | 278 ft | 6 kts | 168° |
| 2026-04-21 23:55 | 2.84211 | -60.69252 | 278 ft | 3 kts | 152° |
| 2026-04-21 23:56 | 2.84202 | -60.69248 | 278 ft | 1 kts | 155° |
| 2026-04-21 23:56 | 2.84200 | -60.69247 | 278 ft | 0 kts | 153° |